Terminal Aerodrome Forecast
Issued by NWS

Home | Current Version | Previous Version | Text Only | Print | Product List | Glossary On
Versions: 1 2 3 4 5 6 7 8 9 10 11 12 13 14 15 16 17 18
000
FTUS46 KOTX 301122
TAFCOE
TAF
KCOE 301122Z 3012/3112 VRB02KT P6SM SCT250
     FM301500 24006KT P6SM FEW080 SCT250
     FM310600 VRB03KT P6SM BKN250
      AMD LTD TO CLD AND VIS=

USA.gov is the U.S. government's official web portal to all federal, state and local government web resources and services.